Time;durP1;ratioP1;P1;durP2;ratioP2;P2;SDS_P1;SDS_P2;PMS_P1;PMS_P2;Temp;Humidity;BMP_temperature;BMP_pressure;BME280_temperature;BME280_humidity;BME280_pressure;Samples;Min_cycle;Max_cycle;Signal;HPM_P1;HPM_P2
2022/11/27 00:01:30;;;;;;;1999.90;999.90;;;6.60;99.90;;;;;;5048441;28;20367;-66
2022/11/27 00:03:56;;;;;;;1999.90;999.90;;;6.60;99.90;;;;;;5064233;28;20099;-67
2022/11/27 00:06:24;;;;;;;1999.90;999.90;;;6.60;99.90;;;;;;5048676;28;20106;-66
2022/11/27 00:08:50;;;;;;;1999.90;999.90;;;6.60;99.90;;;;;;5046771;28;20129;-67
2022/11/27 00:11:19;;;;;;;1999.90;999.90;;;6.60;99.90;;;;;;5047420;28;20151;-66
2022/11/27 00:13:45;;;;;;;1999.90;999.90;;;6.50;99.90;;;;;;5047102;28;20044;-66
2022/11/27 00:16:12;;;;;;;1999.90;999.90;;;6.50;99.90;;;;;;5048643;28;20072;-66
2022/11/27 00:18:37;;;;;;;1999.90;999.90;;;6.50;99.90;;;;;;5049889;28;20087;-66
2022/11/27 00:21:06;;;;;;;1999.90;999.90;;;6.50;99.90;;;;;;5049971;28;20401;-66
2022/11/27 00:23:33;;;;;;;1999.90;999.90;;;6.40;99.90;;;;;;5062700;28;20535;-66
2022/11/27 00:25:58;;;;;;;1999.90;999.90;;;6.40;99.90;;;;;;5048991;28;20098;-66
2022/11/27 00:28:24;;;;;;;1999.90;999.90;;;6.40;99.90;;;;;;5049504;28;20045;-66
2022/11/27 00:30:50;;;;;;;1999.90;999.90;;;6.40;99.90;;;;;;5048012;28;20114;-66
2022/11/27 00:33:15;;;;;;;1999.90;999.90;;;6.40;99.90;;;;;;5030296;28;20040;-66
2022/11/27 00:35:41;;;;;;;1999.90;999.90;;;6.40;99.90;;;;;;5029770;28;20037;-66
2022/11/27 00:38:07;;;;;;;1999.90;999.90;;;6.40;99.90;;;;;;5048985;28;20080;-66
2022/11/27 00:40:33;;;;;;;1999.90;999.90;;;6.30;99.90;;;;;;5047275;28;20072;-66
2022/11/27 00:43:00;;;;;;;1999.90;999.90;;;6.30;99.90;;;;;;5048026;28;20045;-66
2022/11/27 00:45:26;;;;;;;1999.90;999.90;;;6.30;99.90;;;;;;5046973;28;20122;-66
2022/11/27 00:47:51;;;;;;;1999.90;999.90;;;6.30;99.90;;;;;;5044406;28;20053;-67
2022/11/27 00:50:17;;;;;;;1999.90;999.90;;;6.30;99.90;;;;;;5030011;28;20040;-66
2022/11/27 00:52:42;;;;;;;1999.90;999.90;;;6.20;99.90;;;;;;5045321;28;20045;-66
2022/11/27 00:55:08;;;;;;;1999.90;999.90;;;6.20;99.90;;;;;;5030807;28;20120;-66
2022/11/27 00:57:34;;;;;;;1999.90;999.90;;;6.20;99.90;;;;;;5047368;28;20033;-66
2022/11/27 00:59:59;;;;;;;1999.90;999.90;;;6.10;99.90;;;;;;5049216;28;20098;-66
2022/11/27 01:02:25;;;;;;;1999.90;999.90;;;6.10;99.90;;;;;;5047324;28;20040;-66
2022/11/27 01:04:50;;;;;;;1999.90;999.90;;;6.10;99.90;;;;;;5044355;28;20048;-66
2022/11/27 01:07:16;;;;;;;1999.90;999.90;;;6.00;99.90;;;;;;5046745;28;20043;-66
2022/11/27 01:09:41;;;;;;;1999.90;999.90;;;6.00;99.90;;;;;;5047020;28;20055;-66
2022/11/27 01:12:07;;;;;;;1999.90;999.90;;;6.00;99.90;;;;;;5045464;28;20041;-66
2022/11/27 01:14:33;;;;;;;1999.90;999.90;;;5.90;99.90;;;;;;5048648;28;20037;-66
2022/11/27 01:16:59;;;;;;;1999.90;999.90;;;5.90;99.90;;;;;;5045834;28;20044;-66
2022/11/27 01:19:24;;;;;;;1999.90;999.90;;;5.90;99.90;;;;;;5030520;28;20999;-66
2022/11/27 01:21:50;;;;;;;1999.90;999.90;;;5.90;99.90;;;;;;5046184;28;20500;-66
2022/11/27 01:24:16;;;;;;;1999.90;999.90;;;5.80;99.90;;;;;;5046953;28;20060;-66
2022/11/27 01:26:42;;;;;;;1999.90;999.90;;;5.80;99.90;;;;;;5047509;28;20033;-66
2022/11/27 01:29:09;;;;;;;1999.90;999.90;;;5.70;99.90;;;;;;5048019;28;20041;-66
2022/11/27 01:31:34;;;;;;;1999.90;999.90;;;5.70;99.90;;;;;;5046284;28;20033;-66
2022/11/27 01:34:06;;;;;;;1999.90;999.90;;;5.70;99.90;;;;;;5047219;28;20401;-66
2022/11/27 01:36:33;;;;;;;1999.90;999.90;;;5.70;99.90;;;;;;5044572;28;20086;-66
2022/11/27 01:38:59;;;;;;;1999.90;999.90;;;5.70;99.90;;;;;;5046708;28;20041;-66
2022/11/27 01:41:28;;;;;;;1999.90;999.90;;;5.70;99.90;;;;;;5046823;28;20073;-66
2022/11/27 01:43:58;;;;;;;1999.90;999.90;;;5.70;99.90;;;;;;5046058;28;20044;-66
2022/11/27 01:46:35;;;;;;;1999.90;999.90;;;5.70;99.90;;;;;;5045746;28;20052;-67
2022/11/27 01:49:10;;;;;;;1999.90;999.90;;;5.70;99.90;;;;;;5046140;28;20140;-66
2022/11/27 01:51:46;;;;;;;1999.90;999.90;;;5.70;99.90;;;;;;5062853;28;20515;-66
2022/11/27 01:54:13;;;;;;;1999.90;999.90;;;5.70;99.90;;;;;;5045230;28;20036;-66
2022/11/27 01:56:40;;;;;;;1999.90;999.90;;;5.70;99.90;;;;;;5047313;28;20091;-66
2022/11/27 01:59:06;;;;;;;1999.90;999.90;;;5.70;99.90;;;;;;5045895;28;20552;-66
2022/11/27 02:01:32;;;;;;;1999.90;999.90;;;5.70;99.90;;;;;;5045380;28;20370;-66
2022/11/27 02:03:59;;;;;;;1999.90;999.90;;;5.70;99.90;;;;;;5045869;28;20048;-66
2022/11/27 02:06:25;;;;;;;1999.90;999.90;;;5.70;99.90;;;;;;5046353;28;20041;-66
2022/11/27 02:08:52;;;;;;;1999.90;999.90;;;5.70;99.90;;;;;;5028497;28;20106;-66
2022/11/27 02:11:40;;;;;;;1999.90;999.90;;;5.80;99.90;;;;;;5047143;28;20091;-67
2022/11/27 02:14:12;;;;;;;1999.90;999.90;;;5.80;99.90;;;;;;5044825;28;20086;-67
2022/11/27 02:16:49;;;;;;;1999.90;999.90;;;5.80;99.90;;;;;;5045035;28;20079;-66
2022/11/27 02:19:26;;;;;;;1999.90;999.90;;;5.80;99.90;;;;;;5045660;28;20056;-66
2022/11/27 02:22:05;;;;;;;1999.90;999.90;;;5.80;99.90;;;;;;5042939;28;20488;-66
2022/11/27 02:25:05;;;;;;;1999.90;999.90;;;5.80;99.90;;;;;;5046102;28;20041;-66
2022/11/27 02:27:49;;;;;;;1999.90;999.90;;;5.80;99.90;;;;;;5025941;28;20047;-67
2022/11/27 02:30:15;;;;;;;1999.90;999.90;;;5.90;99.90;;;;;;5043467;28;20311;-66
2022/11/27 02:32:59;;;;;;;1999.90;999.90;;;5.90;99.90;;;;;;5046950;28;20428;-66
2022/11/27 02:35:38;;;;;;;1999.90;999.90;;;5.90;99.90;;;;;;5043597;28;20143;-67
2022/11/27 02:38:14;;;;;;;1999.90;999.90;;;5.90;99.90;;;;;;5045037;28;20045;-66
2022/11/27 02:41:03;;;;;;;1999.90;999.90;;;5.90;99.90;;;;;;5042941;28;20103;-66
2022/11/27 02:43:37;;;;;;;1999.90;999.90;;;5.90;99.90;;;;;;5061050;28;20378;-66
2022/11/27 02:46:05;;;;;;;1999.90;999.90;;;5.90;99.90;;;;;;5043724;28;20079;-66
2022/11/27 02:48:35;;;;;;;1999.90;999.90;;;5.90;99.90;;;;;;5044929;28;20049;-67
2022/11/27 02:51:02;;;;;;;1999.90;999.90;;;5.90;99.90;;;;;;5045460;28;20128;-67
2022/11/27 02:53:41;;;;;;;1999.90;999.90;;;6.00;99.90;;;;;;5045676;28;20498;-67
2022/11/27 02:56:13;;;;;;;1999.90;999.90;;;6.00;99.90;;;;;;5045296;28;20049;-67
2022/11/27 02:58:40;;;;;;;1999.90;999.90;;;6.00;99.90;;;;;;5046008;28;20579;-66
2022/11/27 03:01:08;;;;;;;1999.90;999.90;;;6.00;99.90;;;;;;5043349;28;20033;-66
2022/11/27 03:03:41;;;;;;;1999.90;999.90;;;6.00;99.90;;;;;;5044767;28;20035;-66
2022/11/27 03:06:10;;;;;;;;;;;6.00;99.90;;;;;;5044026;28;20044;-66
2022/11/27 03:09:01;;;;;;;1999.90;999.90;;;6.10;99.90;;;;;;5059499;28;19924;-66
2022/11/27 03:11:29;;;;;;;1999.90;999.90;;;6.10;99.90;;;;;;5027351;28;20045;-66
2022/11/27 03:13:59;;;;;;;1999.90;999.90;;;6.10;99.90;;;;;;5044381;28;20033;-67
2022/11/27 03:16:57;;;;;;;1999.90;999.90;;;6.10;99.90;;;;;;5043646;28;20478;-66
2022/11/27 03:19:37;;;;;;;1999.90;999.90;;;6.10;99.90;;;;;;5027614;28;20049;-66
2022/11/27 03:22:03;;;;;;;1999.90;999.90;;;6.10;99.90;;;;;;5026311;28;20053;-66
2022/11/27 03:24:34;;;;;;;1999.90;999.90;;;6.10;99.90;;;;;;5044481;28;20618;-66
2022/11/27 03:27:00;;;;;;;1999.90;999.90;;;6.10;99.90;;;;;;5042298;28;21120;-66
2022/11/27 03:29:44;;;;;;;1999.90;999.90;;;6.20;99.90;;;;;;5044604;28;20044;-67
2022/11/27 03:32:09;;;;;;;1999.90;999.90;;;6.20;99.90;;;;;;5045391;28;20393;-66
2022/11/27 03:34:36;;;;;;;1999.90;999.90;;;6.20;99.90;;;;;;5059135;28;20052;-66
2022/11/27 03:37:01;;;;;;;1999.90;999.90;;;6.20;99.90;;;;;;5043225;28;20040;-66
2022/11/27 03:39:29;;;;;;;1999.90;999.90;;;6.30;99.90;;;;;;5046051;28;20115;-66
2022/11/27 03:42:21;;;;;;;1999.90;999.90;;;6.30;99.90;;;;;;5045151;28;20449;-66
2022/11/27 03:45:20;;;;;;;1999.90;999.90;;;6.30;99.90;;;;;;5043824;28;20043;-67
2022/11/27 03:48:13;;;;;;;1999.90;999.90;;;6.30;99.90;;;;;;5045275;28;20049;-66
2022/11/27 03:51:09;;;;;;;1999.90;999.90;;;6.40;99.90;;;;;;5057834;28;20037;-66
2022/11/27 03:53:43;;;;;;;1999.90;999.90;;;6.30;99.90;;;;;;5060265;28;20663;-66
2022/11/27 03:56:39;;;;;;;1999.90;999.90;;;6.30;99.90;;;;;;5046283;28;20037;-66
2022/11/27 03:59:11;;;;;;;1999.90;999.90;;;6.30;99.90;;;;;;5027692;28;20048;-66
2022/11/27 04:01:38;;;;;;;1999.90;999.90;;;6.30;99.90;;;;;;5041301;28;20053;-66
2022/11/27 04:04:04;;;;;;;1999.90;999.90;;;6.30;99.90;;;;;;5044732;28;20048;-66
2022/11/27 04:06:29;;;;;;;1999.90;999.90;;;6.30;99.90;;;;;;5026932;28;20053;-66
2022/11/27 04:08:55;;;;;;;1999.90;999.90;;;6.30;99.90;;;;;;5025435;28;20095;-67
2022/11/27 04:11:20;;;;;;;1999.90;999.90;;;6.30;99.90;;;;;;5045236;28;20036;-66
2022/11/27 04:13:46;;;;;;;1999.90;999.90;;;6.30;99.90;;;;;;5045054;28;20040;-67
2022/11/27 04:16:11;;;;;;;1999.90;999.90;;;6.30;99.90;;;;;;5027561;28;20036;-66
2022/11/27 04:18:37;;;;;;;1999.90;999.90;;;6.30;99.90;;;;;;5045928;28;20163;-66
2022/11/27 04:21:03;;;;;;;1999.90;999.90;;;6.30;99.90;;;;;;5024342;28;20076;-66
2022/11/27 04:23:28;;;;;;;1999.90;999.90;;;6.30;99.90;;;;;;5046742;28;20037;-66
2022/11/27 04:25:54;;;;;;;1999.90;999.90;;;6.30;99.90;;;;;;5048040;28;20079;-67
2022/11/27 04:28:19;;;;;;;1999.90;999.90;;;6.40;99.90;;;;;;5047508;28;20053;-66
2022/11/27 04:30:50;;;;;;;1999.90;999.90;;;6.40;99.90;;;;;;5031045;28;20378;-66
2022/11/27 04:33:15;;;;;;;1999.90;999.90;;;6.40;99.90;;;;;;5046203;28;20044;-66
2022/11/27 04:35:41;;;;;;;1999.90;999.90;;;6.40;99.90;;;;;;5046990;28;20041;-66
2022/11/27 04:38:07;;;;;;;1999.90;999.90;;;6.30;99.90;;;;;;5048139;28;20424;-66
2022/11/27 04:40:33;;;;;;;1999.90;999.90;;;6.40;99.90;;;;;;5046545;28;20041;-66
2022/11/27 04:42:58;;;;;;;1999.90;999.90;;;6.30;99.90;;;;;;5048755;28;20049;-66
2022/11/27 04:45:24;;;;;;;1999.90;999.90;;;6.30;99.90;;;;;;5047240;28;20052;-66
2022/11/27 04:47:49;;;;;;;1999.90;999.90;;;6.30;99.90;;;;;;5045952;28;20052;-66
2022/11/27 04:50:15;;;;;;;1999.90;999.90;;;6.30;99.90;;;;;;5047082;28;20063;-66
2022/11/27 04:52:40;;;;;;;1999.90;999.90;;;6.30;99.90;;;;;;5048267;28;20033;-66
2022/11/27 04:55:06;;;;;;;1999.90;999.90;;;6.30;99.90;;;;;;5047293;28;20036;-66
2022/11/27 04:57:32;;;;;;;1999.90;999.90;;;6.30;99.90;;;;;;5046529;28;20095;-66
2022/11/27 04:59:58;;;;;;;1999.90;999.90;;;6.30;99.90;;;;;;5044438;28;20424;-66
2022/11/27 05:02:23;;;;;;;1999.90;999.90;;;6.30;99.90;;;;;;5029819;28;20040;-66
2022/11/27 05:04:49;;;;;;;1999.90;999.90;;;6.30;99.90;;;;;;5030153;28;20037;-66
2022/11/27 05:07:14;;;;;;;1999.90;999.90;;;6.30;99.90;;;;;;5047440;28;20472;-66
2022/11/27 05:09:40;;;;;;;1999.90;999.90;;;6.30;99.90;;;;;;5044707;28;20044;-66
2022/11/27 05:12:05;;;;;;;1999.90;999.90;;;6.30;99.90;;;;;;5047142;28;20040;-67
2022/11/27 05:14:31;;;;;;;1999.90;999.90;;;6.20;99.90;;;;;;5046908;28;20044;-66
2022/11/27 05:16:58;;;;;;;1999.90;999.90;;;6.20;99.90;;;;;;5028534;28;20041;-67
2022/11/27 05:19:27;;;;;;;1999.90;999.90;;;6.20;99.90;;;;;;5048305;28;20049;-66
2022/11/27 05:21:53;;;;;;;1999.90;999.90;;;6.20;99.90;;;;;;5046793;28;20055;-66
2022/11/27 05:24:22;;;;;;;1999.90;999.90;;;6.10;99.90;;;;;;5061915;28;20072;-66
2022/11/27 05:26:47;;;;;;;1999.90;999.90;;;6.10;99.90;;;;;;5045841;28;20045;-66
2022/11/27 05:29:14;;;;;;;1999.90;999.90;;;6.10;99.90;;;;;;5027920;28;20494;-66
2022/11/27 05:31:40;;;;;;;1999.90;999.90;;;6.10;99.90;;;;;;5046369;28;20068;-66
2022/11/27 05:34:06;;;;;;;1999.90;999.90;;;6.20;99.90;;;;;;5028955;28;20040;-66
2022/11/27 05:36:32;;;;;;;1999.90;999.90;;;6.10;99.90;;;;;;5043974;28;20043;-66
2022/11/27 05:38:59;;;;;;;1999.90;999.90;;;6.10;99.90;;;;;;5047626;28;20144;-66
2022/11/27 05:41:24;;;;;;;1999.90;999.90;;;6.10;99.90;;;;;;5046632;28;20484;-66
2022/11/27 05:43:50;;;;;;;1999.90;999.90;;;6.10;99.90;;;;;;5028432;28;20036;-66
2022/11/27 05:46:19;;;;;;;1999.90;999.90;;;6.10;99.90;;;;;;5028088;28;20057;-66
2022/11/27 05:48:45;;;;;;;1999.90;999.90;;;6.10;99.90;;;;;;5045124;28;20202;-66
2022/11/27 05:51:10;;;;;;;1999.90;999.90;;;6.10;99.90;;;;;;5045287;28;20127;-66
2022/11/27 05:53:36;;;;;;;1999.90;999.90;;;6.10;99.90;;;;;;5046724;28;20037;-66
2022/11/27 05:56:04;;;;;;;1999.90;999.90;;;6.10;99.90;;;;;;5029352;28;20380;-66
2022/11/27 05:58:30;;;;;;;1999.90;999.90;;;6.10;99.90;;;;;;5046058;28;20037;-66
2022/11/27 06:00:55;;;;;;;1999.90;999.90;;;6.10;99.90;;;;;;5045320;28;20394;-66
2022/11/27 06:03:21;;;;;;;1999.90;999.90;;;6.10;99.90;;;;;;5047496;28;20049;-66
2022/11/27 06:05:46;;;;;;;1999.90;999.90;;;6.10;99.90;;;;;;5046256;28;20117;-67
2022/11/27 06:08:12;;;;;;;1999.90;999.90;;;6.10;99.90;;;;;;5029586;28;20037;-66
2022/11/27 06:10:38;;;;;;;1999.90;999.90;;;6.10;99.90;;;;;;5045887;28;20507;-66
2022/11/27 06:13:04;;;;;;;1999.90;999.90;;;6.10;99.90;;;;;;5012341;28;20412;-66
2022/11/27 06:15:30;;;;;;;1999.90;999.90;;;6.10;99.90;;;;;;5028045;28;20041;-66
2022/11/27 06:17:55;;;;;;;1999.90;999.90;;;6.10;99.90;;;;;;5046233;28;20052;-66
2022/11/27 06:20:22;;;;;;;1999.90;999.90;;;6.10;99.90;;;;;;5044356;28;20055;-67
2022/11/27 06:22:48;;;;;;;1999.90;999.90;;;6.10;99.90;;;;;;5045600;28;20405;-66
2022/11/27 06:25:14;;;;;;;1999.90;999.90;;;6.10;99.90;;;;;;5028629;28;20053;-66
2022/11/27 06:27:39;;;;;;;1999.90;999.90;;;6.10;99.90;;;;;;5046061;28;20041;-66
2022/11/27 06:30:05;;;;;;;1999.90;999.90;;;6.10;99.90;;;;;;5045564;28;20044;-66
2022/11/27 06:32:31;;;;;;;1999.90;999.90;;;6.10;99.90;;;;;;5047000;28;20041;-67
2022/11/27 06:34:57;;;;;;;1999.90;999.90;;;6.20;99.90;;;;;;5027319;28;20504;-66
2022/11/27 06:37:22;;;;;;;1999.90;999.90;;;6.20;99.90;;;;;;5046449;28;20082;-66
2022/11/27 06:39:48;;;;;;;1999.90;999.90;;;6.10;99.90;;;;;;5045355;28;20040;-66
2022/11/27 06:42:14;;;;;;;1999.90;999.90;;;6.20;99.90;;;;;;5044466;28;21530;-66
2022/11/27 06:44:39;;;;;;;1999.90;999.90;;;6.20;99.90;;;;;;5044878;28;20512;-66
2022/11/27 06:47:05;;;;;;;1999.90;999.90;;;6.20;99.90;;;;;;5043596;28;20061;-66
2022/11/27 06:49:31;;;;;;;1999.90;999.90;;;6.20;99.90;;;;;;5046787;28;20465;-66
2022/11/27 06:51:56;;;;;;;1999.90;999.90;;;6.20;99.90;;;;;;5044448;28;20037;-66
2022/11/27 06:54:22;;;;;;;1999.90;999.90;;;6.20;99.90;;;;;;5042997;28;20506;-66
2022/11/27 06:56:51;;;;;;;1999.90;999.90;;;6.20;99.90;;;;;;5044433;28;20037;-66
2022/11/27 06:59:17;;;;;;;1999.90;999.90;;;6.30;99.90;;;;;;5046007;28;20123;-66
2022/11/27 07:01:43;;;;;;;1999.90;999.90;;;6.30;99.90;;;;;;5043132;28;20127;-66
2022/11/27 07:04:13;;;;;;;1999.90;999.90;;;6.30;99.90;;;;;;5046457;28;20041;-66
2022/11/27 07:06:39;;;;;;;1999.90;999.90;;;6.30;99.90;;;;;;5027316;28;20052;-66
2022/11/27 07:09:06;;;;;;;1999.90;999.90;;;6.30;99.90;;;;;;5057073;28;20045;-66
2022/11/27 07:11:32;;;;;;;1999.90;999.90;;;6.30;99.90;;;;;;5045498;28;20041;-66
2022/11/27 07:14:00;;;;;;;1999.90;999.90;;;6.30;99.90;;;;;;5044714;28;20044;-66
2022/11/27 07:16:28;;;;;;;1999.90;999.90;;;6.30;99.90;;;;;;5044450;28;20055;-66
2022/11/27 07:18:57;;;;;;;1999.90;999.90;;;6.30;99.90;;;;;;5044681;28;20084;-66
2022/11/27 07:21:23;;;;;;;1999.90;999.90;;;6.30;99.90;;;;;;5045437;28;20412;-66
2022/11/27 07:23:49;;;;;;;1999.90;999.90;;;6.30;99.90;;;;;;5043403;28;20063;-66
2022/11/27 07:26:18;;;;;;;1999.90;999.90;;;6.30;99.90;;;;;;5027136;28;20501;-66
2022/11/27 07:28:44;;;;;;;1999.90;999.90;;;6.30;99.90;;;;;;5061929;28;20138;-66
2022/11/27 07:31:16;;;;;;;1999.90;999.90;;;6.30;99.90;;;;;;5028556;28;20045;-66
2022/11/27 07:33:42;;;;;;;1999.90;999.90;;;6.30;99.90;;;;;;5042872;28;20392;-66
2022/11/27 07:36:15;;;;;;;1999.90;999.90;;;6.30;99.90;;;;;;5044932;28;20033;-66
2022/11/27 07:38:41;;;;;;;1999.90;999.90;;;6.30;99.90;;;;;;5044553;28;20049;-66
2022/11/27 07:41:08;;;;;;;1999.90;999.90;;;6.30;99.90;;;;;;5044514;28;20110;-66
2022/11/27 07:43:34;;;;;;;1999.90;999.90;;;6.30;99.90;;;;;;5042935;28;20047;-66
2022/11/27 07:46:10;;;;;;;1999.90;999.90;;;6.30;99.90;;;;;;5042992;28;20067;-66
2022/11/27 07:48:36;;;;;;;1999.90;999.90;;;6.30;99.90;;;;;;5059585;28;20424;-67
2022/11/27 07:51:05;;;;;;;1999.90;999.90;;;6.40;99.90;;;;;;5044964;28;20051;-66
2022/11/27 07:53:30;;;;;;;1999.90;999.90;;;6.40;99.90;;;;;;5045157;28;20041;-66
2022/11/27 07:55:58;;;;;;;1999.90;999.90;;;6.40;99.90;;;;;;5045013;28;20052;-66
2022/11/27 07:58:24;;;;;;;1999.90;999.90;;;6.40;99.90;;;;;;5049629;28;20076;-66
2022/11/27 08:00:49;;;;;;;1999.90;999.90;;;6.40;99.90;;;;;;5048314;28;20477;-66
2022/11/27 08:03:15;;;;;;;1999.90;999.90;;;6.40;99.90;;;;;;5047139;28;20543;-66
2022/11/27 08:05:41;;;;;;;1999.90;999.90;;;6.40;99.90;;;;;;5047831;28;20131;-66
2022/11/27 08:08:06;;;;;;;1999.90;999.90;;;6.40;99.90;;;;;;5031773;28;20128;-66
2022/11/27 08:10:36;;;;;;;1999.90;999.90;;;6.40;99.90;;;;;;5043824;28;20044;-66
2022/11/27 08:13:02;;;;;;;1999.90;999.90;;;6.40;99.90;;;;;;5050343;28;20045;-68
2022/11/27 08:15:28;;;;;;;1999.90;999.90;;;6.40;99.90;;;;;;5046586;28;20076;-66
2022/11/27 08:17:53;;;;;;;1999.90;999.90;;;6.40;99.90;;;;;;5044765;28;20055;-66
2022/11/27 08:20:19;;;;;;;1999.90;999.90;;;6.40;99.90;;;;;;5028153;28;20135;-67
2022/11/27 08:22:45;;;;;;;1999.90;999.90;;;6.40;99.90;;;;;;5048286;28;20404;-66
2022/11/27 08:25:10;;;;;;;1999.90;999.90;;;6.30;99.90;;;;;;5043650;28;20037;-66
2022/11/27 08:27:36;;;;;;;1999.90;999.90;;;6.30;99.90;;;;;;5047061;28;20122;-66
2022/11/27 08:30:02;;;;;;;1999.90;999.90;;;6.30;99.90;;;;;;5045876;28;20044;-66
2022/11/27 08:32:28;;;;;;;1999.90;999.90;;;6.30;99.90;;;;;;5045358;28;20174;-66
2022/11/27 08:34:53;;;;;;;1999.90;999.90;;;6.30;99.90;;;;;;5047361;28;20132;-66
2022/11/27 08:37:20;;;;;;;1999.90;999.90;;;6.30;99.90;;;;;;5045505;28;20052;-66
2022/11/27 08:39:46;;;;;;;1999.90;999.90;;;6.30;99.90;;;;;;5046298;28;20076;-66
2022/11/27 08:42:12;;;;;;;1999.90;999.90;;;6.30;99.90;;;;;;5045938;28;20106;-66
2022/11/27 08:44:37;;;;;;;1999.90;999.90;;;6.30;99.90;;;;;;5045435;28;20025;-66
2022/11/27 08:47:03;;;;;;;1999.90;999.90;;;6.30;99.90;;;;;;5048234;28;20071;-67
2022/11/27 08:49:28;;;;;;;1999.90;999.90;;;6.30;99.90;;;;;;5029987;28;20409;-67
2022/11/27 08:51:54;;;;;;;1999.90;999.90;;;6.30;99.90;;;;;;5044250;28;20037;-66
2022/11/27 08:54:19;;;;;;;1999.90;999.90;;;6.30;99.90;;;;;;5042947;28;20038;-66
2022/11/27 08:56:45;;;;;;;1999.90;999.90;;;6.40;99.90;;;;;;5045316;28;20041;-66
2022/11/27 08:59:10;;;;;;;1999.90;999.90;;;6.30;99.90;;;;;;5045074;28;20041;-66
2022/11/27 09:01:36;;;;;;;1999.90;999.90;;;6.40;99.90;;;;;;5045325;28;20040;-67
2022/11/27 09:04:02;;;;;;;1999.90;999.90;;;6.40;99.90;;;;;;5045628;28;20441;-66
2022/11/27 09:06:30;;;;;;;1999.90;999.90;;;6.40;99.90;;;;;;5042194;28;20048;-66
2022/11/27 09:09:00;;;;;;;1999.90;999.90;;;6.40;99.90;;;;;;5042996;28;20084;-66
2022/11/27 09:11:27;;;;;;;1999.90;999.90;;;6.30;99.90;;;;;;5041112;28;20037;-66
2022/11/27 09:13:52;;;;;;;1999.90;999.90;;;6.30;99.90;;;;;;5027441;28;20055;-66
2022/11/27 09:16:20;;;;;;;1999.90;999.90;;;6.30;99.90;;;;;;5024739;28;20040;-66
2022/11/27 09:18:47;;;;;;;1999.90;999.90;;;6.30;99.90;;;;;;5059846;28;20055;-66
2022/11/27 09:21:14;;;;;;;1999.90;999.90;;;6.30;99.90;;;;;;5046606;28;20083;-66
2022/11/27 09:23:41;;;;;;;1999.90;999.90;;;6.30;99.90;;;;;;5044623;28;20064;-66
2022/11/27 09:26:09;;;;;;;1999.90;999.90;;;6.30;99.90;;;;;;5045713;28;20048;-66
2022/11/27 09:28:35;;;;;;;1999.90;999.90;;;6.30;99.90;;;;;;5043803;28;20043;-66
2022/11/27 09:31:02;;;;;;;1999.90;999.90;;;6.30;99.90;;;;;;5029935;28;20560;-66
2022/11/27 09:33:30;;;;;;;1999.90;999.90;;;6.30;99.90;;;;;;5046074;28;20041;-66
2022/11/27 09:35:56;;;;;;;1999.90;999.90;;;6.20;99.90;;;;;;5045318;28;20041;-66
2022/11/27 09:38:22;;;;;;;1999.90;999.90;;;6.30;99.90;;;;;;5042036;28;20041;-66
2022/11/27 09:41:05;;;;;;;1999.90;999.90;;;6.20;99.90;;;;;;5028508;28;20041;-66
2022/11/27 09:43:35;;;;;;;1999.90;999.90;;;6.20;99.90;;;;;;5062515;28;20124;-66
2022/11/27 09:46:07;;;;;;;1999.90;999.90;;;6.20;99.90;;;;;;5029877;28;20069;-66
2022/11/27 09:48:38;;;;;;;1999.90;999.90;;;6.20;99.90;;;;;;5044259;28;20041;-66
2022/11/27 09:51:14;;;;;;;1999.90;999.90;;;6.20;99.90;;;;;;5047818;28;20615;-66
2022/11/27 09:53:49;;;;;;;1999.90;999.90;;;6.20;99.90;;;;;;5027443;28;20213;-67
2022/11/27 09:56:17;;;;;;;1999.90;999.90;;;6.20;99.90;;;;;;5043606;28;20036;-67
2022/11/27 09:58:56;;;;;;;1999.90;999.90;;;6.20;99.90;;;;;;5043465;28;20449;-66
2022/11/27 10:01:27;;;;;;;1999.90;999.90;;;6.20;99.90;;;;;;5026116;28;20043;-67
2022/11/27 10:03:53;;;;;;;1999.90;999.90;;;6.20;99.90;;;;;;5042656;28;20118;-66
2022/11/27 10:06:33;;;;;;;1999.90;999.90;;;6.20;99.90;;;;;;5047721;28;20098;-67
2022/11/27 10:09:18;;;;;;;1999.90;999.90;;;6.20;99.90;;;;;;5043650;28;20531;-66
2022/11/27 10:12:12;;;;;;;1999.90;999.90;;;6.20;99.90;;;;;;5047337;28;20041;-66
2022/11/27 10:14:58;;;;;;;1999.90;999.90;;;6.20;99.90;;;;;;5044886;28;20444;-66
2022/11/27 10:17:47;;;;;;;1999.90;999.90;;;6.20;99.90;;;;;;5045668;28;20455;-66
2022/11/27 10:20:27;;;;;;;1999.90;999.90;;;6.20;99.90;;;;;;5046377;28;20048;-66
2022/11/27 10:22:57;;;;;;;1999.90;999.90;;;6.20;99.90;;;;;;5044712;28;20097;-66
2022/11/27 10:25:51;;;;;;;1999.90;999.90;;;6.20;99.90;;;;;;5045455;28;20593;-66
2022/11/27 10:28:36;;;;;;;;;;;6.20;99.90;;;;;;5041500;28;20454;-67
2022/11/27 10:31:03;;;;;;;1999.90;999.90;;;6.20;99.90;;;;;;5045826;28;19920;-67
2022/11/27 10:33:44;;;;;;;1999.90;999.90;;;6.20;99.90;;;;;;5044949;28;20117;-66
2022/11/27 10:36:19;;;;;;;1999.90;999.90;;;6.20;99.90;;;;;;5044392;28;20108;-66
2022/11/27 10:38:46;;;;;;;1999.90;999.90;;;6.20;99.90;;;;;;5059832;28;20554;-66
2022/11/27 10:41:29;;;;;;;1999.90;999.90;;;6.30;99.90;;;;;;5046038;28;20392;-67
2022/11/27 10:43:56;;;;;;;;;;;6.30;99.90;;;;;;5046288;28;20044;-67
2022/11/27 10:46:30;;;;;;;1999.90;999.90;;;6.30;99.90;;;;;;5044902;28;19932;-67
2022/11/27 10:48:57;;;;;;;1999.90;999.90;;;6.30;99.90;;;;;;5027646;28;20408;-67
2022/11/27 10:51:31;;;;;;;1999.90;999.90;;;6.30;99.90;;;;;;5046726;28;20051;-66
2022/11/27 10:53:58;;;;;;;;;;;6.30;99.90;;;;;;5054553;28;20053;-67
2022/11/27 10:56:41;;;;;;;1999.90;999.90;;;6.30;99.90;;;;;;5045424;28;19921;-67
2022/11/27 10:59:20;;;;;;;1999.90;999.90;;;6.30;99.90;;;;;;5046033;28;20041;-66
2022/11/27 11:01:53;;;;;;;1999.90;999.90;;;6.40;99.90;;;;;;5045107;28;20059;-67
2022/11/27 11:04:21;;;;;;;1999.90;999.90;;;6.40;99.90;;;;;;5041547;28;20055;-66
2022/11/27 11:06:49;;;;;;;1999.90;999.90;;;6.40;99.90;;;;;;5044327;28;20037;-67
2022/11/27 11:09:26;;;;;;;1999.90;999.90;;;6.40;99.90;;;;;;5043012;28;20056;-67
2022/11/27 11:11:52;;;;;;;1999.90;999.90;;;6.40;99.90;;;;;;5042775;28;20040;-67
2022/11/27 11:14:25;;;;;;;1999.90;999.90;;;6.40;99.90;;;;;;5044479;28;20052;-67
2022/11/27 11:16:53;;;;;;;1999.90;999.90;;;6.40;99.90;;;;;;5047074;28;20083;-67
2022/11/27 11:19:29;;;;;;;1999.90;999.90;;;6.50;99.90;;;;;;5042528;28;20123;-67
2022/11/27 11:21:55;;;;;;;1999.90;999.90;;;6.50;99.90;;;;;;5042588;28;20045;-67
2022/11/27 11:24:30;;;;;;;1999.90;999.90;;;6.50;99.90;;;;;;5042930;28;20159;-67
2022/11/27 11:27:04;;;;;;;1999.90;999.90;;;6.50;99.90;;;;;;5046167;28;20055;-67
2022/11/27 11:29:55;;;;;;;1999.90;999.90;;;6.50;99.90;;;;;;5043610;28;20067;-67
2022/11/27 11:32:25;;;;;;;1999.90;999.90;;;6.50;99.90;;;;;;5045575;28;20044;-67
2022/11/27 11:34:57;;;;;;;1999.90;999.90;;;6.50;99.90;;;;;;5046982;28;20045;-67
2022/11/27 11:37:24;;;;;;;1999.90;999.90;;;6.50;99.90;;;;;;5045990;28;20047;-66
2022/11/27 11:39:57;;;;;;;1999.90;999.90;;;6.60;99.90;;;;;;5049275;28;20102;-67
2022/11/27 11:42:29;;;;;;;1999.90;999.90;;;6.60;99.90;;;;;;5049156;28;20051;-67
2022/11/27 11:45:09;;;;;;;1999.90;999.90;;;6.60;99.90;;;;;;5048267;28;20068;-67
2022/11/27 11:47:46;;;;;;;1999.90;999.90;;;6.60;99.90;;;;;;5048016;28;20053;-67
2022/11/27 11:50:15;;;;;;;1999.90;999.90;;;6.60;99.90;;;;;;5047945;28;20509;-66
2022/11/27 11:53:00;;;;;;;1999.90;999.90;;;6.60;99.90;;;;;;5030069;28;20041;-67
2022/11/27 11:55:47;;;;;;;1999.90;999.90;;;6.60;99.90;;;;;;5040745;28;20043;-67
2022/11/27 11:58:57;;;;;;;1999.90;999.90;;;6.60;99.90;;;;;;5042905;28;20849;-67
2022/11/27 12:01:38;;;;;;;1999.90;999.90;;;6.60;99.90;;;;;;5049835;28;20532;-67
2022/11/27 12:04:31;;;;;;;1999.90;999.90;;;6.60;99.90;;;;;;5053743;28;20044;-67
2022/11/27 12:07:08;;;;;;;1999.90;999.90;;;6.60;99.90;;;;;;5045897;28;20413;-66
2022/11/27 12:09:43;;;;;;;1999.90;999.90;;;6.60;99.90;;;;;;5058361;28;20041;-67
2022/11/27 12:12:17;;;;;;;1999.90;999.90;;;6.60;99.90;;;;;;5036629;28;20041;-67
2022/11/27 12:14:55;;;;;;;1999.90;999.90;;;6.60;99.90;;;;;;5038746;28;20072;-67
2022/11/27 12:17:43;;;;;;;1999.90;999.90;;;6.60;99.90;;;;;;5021563;28;20037;-66
2022/11/27 12:20:23;;;;;;;1999.90;999.90;;;6.70;99.90;;;;;;5054286;28;20056;-67
2022/11/27 12:23:10;;;;;;;1999.90;999.90;;;6.70;99.90;;;;;;5026665;28;20454;-66
2022/11/27 12:25:49;;;;;;;1999.90;999.90;;;6.70;99.90;;;;;;5043463;28;20044;-67